createdAt,value
2022-09-27T00:00:26.775Z,96281.22
2022-09-27T00:02:53.459Z,96277.75
2022-09-27T00:05:19.996Z,96269.84
2022-09-27T00:07:46.546Z,96272.16
2022-09-27T00:10:13.133Z,96268.84
2022-09-27T00:12:39.664Z,96264.28
2022-09-27T00:15:07.126Z,96257.41
2022-09-27T00:17:33.821Z,96255.97
2022-09-27T00:20:00.479Z,96252.63
2022-09-27T00:22:27.491Z,96250.34
2022-09-27T00:24:54.302Z,96236.00
2022-09-27T00:27:20.906Z,96227.88
2022-09-27T00:29:47.709Z,96230.56
2022-09-27T00:32:14.681Z,96236.00
2022-09-27T00:34:41.835Z,96233.03
2022-09-27T00:37:09.153Z,96235.16
2022-09-27T00:39:35.663Z,96226.59
2022-09-27T00:42:02.171Z,96213.50
2022-09-27T00:44:29.155Z,96215.97
2022-09-27T00:46:58.621Z,96208.06
2022-09-27T00:49:31.093Z,96207.44
2022-09-27T00:52:20.866Z,96205.97
2022-09-27T00:54:50.866Z,96207.25
2022-09-27T00:57:17.883Z,96213.06
2022-09-27T00:59:49.975Z,96211.41
2022-09-27T01:02:16.789Z,96207.63
2022-09-27T01:04:44.032Z,96205.13
2022-09-27T01:07:10.572Z,96205.56
2022-09-27T01:09:37.664Z,96197.25
2022-09-27T01:12:23.022Z,96189.72
2022-09-27T01:15:01.816Z,96183.91
2022-09-27T01:17:36.032Z,96183.91
2022-09-27T01:20:15.594Z,96177.03
2022-09-27T01:22:45.771Z,96172.06
2022-09-27T01:25:22.698Z,96162.66
2022-09-27T01:28:07.858Z,96160.19
2022-09-27T01:30:34.409Z,96148.06
2022-09-27T01:33:10.471Z,96145.53
2022-09-27T01:35:55.637Z,96138.44
2022-09-27T01:38:32.071Z,96138.91
2022-09-27T01:41:00.242Z,96130.56
2022-09-27T01:43:41.861Z,96126.38
2022-09-27T01:46:11.775Z,96127.44
2022-09-27T01:49:04.409Z,96126.00
2022-09-27T01:51:36.250Z,96121.81
2022-09-27T01:54:04.661Z,96119.34
2022-09-27T01:56:33.548Z,96118.53
2022-09-27T01:59:10.878Z,96109.97
2022-09-27T02:01:45.532Z,96116.44
2022-09-27T02:04:15.677Z,96116.84
2022-09-27T02:07:05.861Z,96103.09
2022-09-27T02:09:35.463Z,96110.63
2022-09-27T02:12:31.341Z,96105.22
2022-09-27T02:15:06.915Z,96109.16
2022-09-27T02:17:43.847Z,96101.22
2022-09-27T02:20:34.718Z,96108.13
2022-09-27T02:23:15.254Z,96111.66
2022-09-27T02:25:50.413Z,96109.78
2022-09-27T02:28:27.291Z,96108.97
2022-09-27T02:30:54.278Z,96106.66
2022-09-27T02:33:27.022Z,96111.03
2022-09-27T02:35:53.842Z,96111.03
2022-09-27T02:38:20.949Z,96103.94
2022-09-27T02:40:47.897Z,96107.91
2022-09-27T02:43:16.424Z,96107.25
2022-09-27T02:45:55.722Z,96095.63
2022-09-27T02:48:40.681Z,96099.00
2022-09-27T02:51:21.750Z,96101.53
2022-09-27T02:54:01.785Z,96089.84
2022-09-27T02:57:05.563Z,96093.63
2022-09-27T02:59:59.590Z,96087.94
2022-09-27T03:02:49.517Z,96082.56
2022-09-27T03:05:44.010Z,96084.03
2022-09-27T03:08:12.018Z,96082.38
2022-09-27T03:10:39.026Z,96076.94
2022-09-27T03:13:05.686Z,96064.91
2022-09-27T03:15:32.535Z,96068.25
2022-09-27T03:18:02.072Z,96062.63
2022-09-27T03:20:47.060Z,96055.75
2022-09-27T03:23:20.788Z,96059.09
2022-09-27T03:25:48.518Z,96039.53
2022-09-27T03:28:15.688Z,96034.47
2022-09-27T03:30:44.937Z,96027.00
2022-09-27T03:33:14.341Z,96023.25
2022-09-27T03:35:50.048Z,96015.69
2022-09-27T03:38:16.768Z,96013.84
2022-09-27T03:40:43.323Z,96010.28
2022-09-27T03:43:10.882Z,96015.75
2022-09-27T03:45:37.471Z,96014.09
2022-09-27T03:48:07.214Z,96009.91
2022-09-27T03:50:34.410Z,96010.41
2022-09-27T03:53:01.110Z,96010.81
2022-09-27T03:55:27.670Z,96007.06
2022-09-27T03:57:54.161Z,96005.81
2022-09-27T04:00:24.061Z,96004.97
2022-09-27T04:02:50.643Z,96005.00
2022-09-27T04:05:24.125Z,96007.25
2022-09-27T04:07:54.993Z,95998.31
2022-09-27T04:10:22.203Z,95989.19
2022-09-27T04:12:49.843Z,95985.44
2022-09-27T04:15:17.823Z,95989.59
2022-09-27T04:17:50.598Z,95983.53
2022-09-27T04:20:25.929Z,95978.31
2022-09-27T04:22:53.018Z,95978.34
2022-09-27T04:25:20.558Z,95975.03
2022-09-27T04:27:51.977Z,95977.53
2022-09-27T04:30:19.078Z,95970.44
2022-09-27T04:33:05.813Z,95963.16
2022-09-27T04:36:05.550Z,95965.47
2022-09-27T04:38:33.583Z,95946.69
2022-09-27T04:41:03.173Z,95949.19
2022-09-27T04:43:33.258Z,95942.94
2022-09-27T04:46:00.239Z,95931.28
2022-09-27T04:48:27.623Z,95928.56
2022-09-27T04:50:58.357Z,95925.41
2022-09-27T04:53:25.209Z,95928.38
2022-09-27T04:55:57.417Z,95928.38
2022-09-27T04:58:24.577Z,95929.41
2022-09-27T05:00:55.839Z,95916.56
2022-09-27T05:03:57.686Z,95909.03
2022-09-27T05:06:25.460Z,95925.91
2022-09-27T05:08:54.425Z,95917.84
2022-09-27T05:11:26.838Z,95922.22
2022-09-27T05:14:11.977Z,95922.03
2022-09-27T05:16:49.019Z,95921.78
2022-09-27T05:19:35.801Z,95916.75
2022-09-27T05:22:31.695Z,95917.34
2022-09-27T05:24:58.356Z,95924.69
2022-09-27T05:27:25.102Z,95928.50
2022-09-27T05:29:51.597Z,95922.66
2022-09-27T05:32:22.441Z,95925.59
2022-09-27T05:34:55.626Z,95924.53
2022-09-27T05:37:22.536Z,95918.09
2022-09-27T05:39:50.002Z,95926.84
2022-09-27T05:42:17.570Z,95918.09
2022-09-27T05:44:48.418Z,95911.03
2022-09-27T05:47:15.971Z,95916.44
2022-09-27T05:49:42.605Z,95915.63
2022-09-27T05:52:15.099Z,95916.41
2022-09-27T05:54:43.829Z,95915.63
2022-09-27T05:57:10.360Z,95906.84
2022-09-27T05:59:50.815Z,95916.44
2022-09-27T06:02:20.373Z,95909.75
2022-09-27T06:04:47.265Z,95900.97
2022-09-27T06:07:39.451Z,95896.38
2022-09-27T06:10:10.673Z,95899.69
2022-09-27T06:12:38.671Z,95905.50
2022-09-27T06:15:16.433Z,95905.50
2022-09-27T06:17:44.981Z,95908.78
2022-09-27T06:20:17.140Z,95899.19
2022-09-27T06:22:43.747Z,95888.94
2022-09-27T06:25:10.426Z,95894.34
2022-09-27T06:27:49.207Z,95889.72
2022-09-27T06:30:23.927Z,95895.84
2022-09-27T06:33:01.782Z,95899.97
2022-09-27T06:35:36.330Z,95901.41
2022-09-27T06:38:05.014Z,95903.69
2022-09-27T06:40:32.410Z,95899.84
2022-09-27T06:43:15.913Z,95896.56
2022-09-27T06:46:10.662Z,95892.84
2022-09-27T06:49:13.032Z,95903.19
2022-09-27T06:51:42.464Z,95892.88
2022-09-27T06:54:10.237Z,95882.16
2022-09-27T06:56:37.314Z,95880.25
2022-09-27T06:59:23.010Z,95887.69
2022-09-27T07:01:52.752Z,95885.19
2022-09-27T07:04:32.403Z,95887.44
2022-09-27T07:07:05.178Z,95893.31
2022-09-27T07:09:42.503Z,95893.50
2022-09-27T07:12:12.676Z,95899.16
2022-09-27T07:14:41.163Z,95896.44
2022-09-27T07:17:14.745Z,95905.88
2022-09-27T07:19:51.262Z,95901.31
2022-09-27T07:22:18.434Z,95909.66
2022-09-27T07:24:50.655Z,95907.53
2022-09-27T07:27:18.207Z,95912.84
2022-09-27T07:29:45.190Z,95913.63
2022-09-27T07:32:11.871Z,95923.59
2022-09-27T07:34:38.802Z,95925.22
2022-09-27T07:37:05.995Z,95936.88
2022-09-27T07:39:37.850Z,95938.00
2022-09-27T07:42:06.114Z,95943.41
2022-09-27T07:44:32.812Z,95940.34
2022-09-27T07:47:24.665Z,95939.06
2022-09-27T07:50:12.716Z,95945.88
2022-09-27T07:53:13.764Z,95942.06
2022-09-27T07:55:57.166Z,95941.84
2022-09-27T07:58:25.310Z,95938.50
2022-09-27T08:00:57.051Z,95946.38
2022-09-27T08:03:23.715Z,95937.63
2022-09-27T08:05:50.291Z,95948.69
2022-09-27T08:08:18.273Z,95957.25
2022-09-27T08:10:49.059Z,95950.38
2022-09-27T08:13:22.311Z,95955.09
2022-09-27T08:15:54.496Z,95953.34
2022-09-27T08:18:26.555Z,95947.63
2022-09-27T08:20:57.273Z,95946.84
2022-09-27T08:23:46.707Z,95948.88
2022-09-27T08:26:30.028Z,95947.16
2022-09-27T08:29:17.263Z,95958.28
2022-09-27T08:31:54.372Z,95956.81
2022-09-27T08:34:23.028Z,95957.34
2022-09-27T08:36:49.682Z,95954.00
2022-09-27T08:39:16.611Z,95956.13
2022-09-27T08:41:57.355Z,95959.72
2022-09-27T08:44:23.938Z,95954.38
2022-09-27T08:47:01.542Z,95960.91
2022-09-27T08:49:51.532Z,95955.41
2022-09-27T08:52:32.151Z,95956.63
2022-09-27T08:55:03.171Z,95957.28
2022-09-27T08:57:29.729Z,95956.69
2022-09-27T09:00:00.088Z,95958.88
2022-09-27T09:02:27.364Z,95957.75
2022-09-27T09:04:56.191Z,95946.91
2022-09-27T09:07:40.866Z,95957.06
2022-09-27T09:10:37.519Z,95956.09
2022-09-27T09:13:25.861Z,95961.63
2022-09-27T09:16:27.604Z,95962.28
2022-09-27T09:19:05.201Z,95955.63
2022-09-27T09:22:10.763Z,95960.88
2022-09-27T09:24:50.085Z,95956.72
2022-09-27T09:27:23.517Z,95958.53
2022-09-27T09:30:10.021Z,95953.16
2022-09-27T09:32:49.689Z,95955.94
2022-09-27T09:35:26.262Z,95959.16
2022-09-27T09:37:56.641Z,95956.09
2022-09-27T09:40:38.546Z,95955.69
2022-09-27T09:43:10.516Z,95961.38
2022-09-27T09:45:41.653Z,95958.22
2022-09-27T09:48:27.124Z,95960.81
2022-09-27T09:50:56.346Z,95954.88
2022-09-27T09:53:39.329Z,95962.66
2022-09-27T09:56:10.652Z,95962.00
2022-09-27T09:58:44.215Z,95975.75
2022-09-27T10:01:18.778Z,95977.38
2022-09-27T10:03:46.595Z,95978.28
2022-09-27T10:06:14.500Z,95985.09
2022-09-27T10:08:41.582Z,95987.03
2022-09-27T10:11:40.684Z,95983.72
2022-09-27T10:14:12.567Z,95986.94
2022-09-27T10:16:42.546Z,95995.84
2022-09-27T10:19:09.925Z,95996.44
2022-09-27T10:21:39.975Z,95982.16
2022-09-27T10:24:18.250Z,95974.41
2022-09-27T10:26:51.896Z,95971.91
2022-09-27T10:29:37.025Z,95976.25
2022-09-27T10:32:11.967Z,95978.03
2022-09-27T10:34:43.039Z,95993.03
2022-09-27T10:37:12.606Z,95997.31
2022-09-27T10:39:48.960Z,95998.78
2022-09-27T10:42:30.601Z,95994.25
2022-09-27T10:44:57.160Z,95999.31
2022-09-27T10:47:37.487Z,95998.88
2022-09-27T10:50:50.832Z,95999.59
2022-09-27T10:53:23.902Z,96010.00
2022-09-27T10:56:04.514Z,96001.44
2022-09-27T10:58:33.396Z,96003.50
2022-09-27T11:01:03.347Z,96000.66
2022-09-27T11:03:39.472Z,96004.03
2022-09-27T11:06:39.213Z,95996.97
2022-09-27T11:09:18.818Z,96001.59
2022-09-27T11:11:47.794Z,96005.66
2022-09-27T11:14:22.517Z,96016.53
2022-09-27T11:16:58.275Z,96003.59
2022-09-27T11:19:48.864Z,95994.25
2022-09-27T11:22:16.592Z,95993.81
2022-09-27T11:24:54.235Z,95991.31
2022-09-27T11:27:23.778Z,95981.84
2022-09-27T11:30:01.137Z,95983.81
2022-09-27T11:33:06.627Z,95973.47
2022-09-27T11:35:38.972Z,95970.53
2022-09-27T11:38:51.206Z,95972.81
2022-09-27T11:41:21.686Z,95967.88
2022-09-27T11:44:07.651Z,95961.53
2022-09-27T11:46:42.402Z,95956.53
2022-09-27T11:49:14.339Z,95958.03
2022-09-27T11:51:56.414Z,95954.19
2022-09-27T11:54:30.792Z,95947.88
2022-09-27T11:57:06.927Z,95944.00
2022-09-27T11:59:37.649Z,95938.63
2022-09-27T12:02:04.102Z,95945.50
2022-09-27T12:04:30.854Z,95946.91
2022-09-27T12:07:08.809Z,95953.47
2022-09-27T12:09:37.885Z,95959.53
2022-09-27T12:12:25.907Z,95965.41
2022-09-27T12:14:56.307Z,95963.38
2022-09-27T12:17:25.694Z,95964.94
2022-09-27T12:19:55.191Z,95974.31
2022-09-27T12:22:57.563Z,95977.28
2022-09-27T12:25:34.326Z,95979.94
2022-09-27T12:28:28.442Z,95979.16
2022-09-27T12:31:17.679Z,95989.50
2022-09-27T12:33:56.044Z,95986.94
2022-09-27T12:36:25.663Z,95987.28
2022-09-27T12:38:56.122Z,95995.94
2022-09-27T12:41:24.086Z,95998.66
2022-09-27T12:44:05.737Z,95996.09
2022-09-27T12:46:41.548Z,95995.41
2022-09-27T12:49:21.358Z,95999.53
2022-09-27T12:52:09.839Z,95991.69
2022-09-27T12:55:01.934Z,95991.66
2022-09-27T12:57:31.551Z,95992.94
2022-09-27T13:00:01.383Z,95999.31
2022-09-27T13:02:37.529Z,96000.38
2022-09-27T13:05:22.439Z,95992.50
2022-09-27T13:08:19.102Z,95988.75
2022-09-27T13:10:47.367Z,96005.91
2022-09-27T13:13:26.569Z,96003.38
2022-09-27T13:15:56.876Z,95992.63
2022-09-27T13:18:36.062Z,95995.16
2022-09-27T13:21:07.757Z,95991.53
2022-09-27T13:23:42.287Z,95996.84
2022-09-27T13:26:23.810Z,95999.59
2022-09-27T13:28:59.802Z,95989.94
2022-09-27T13:31:52.071Z,95987.38
2022-09-27T13:34:37.346Z,95988.06
2022-09-27T13:37:23.038Z,95986.91
2022-09-27T13:39:49.704Z,95992.41
2022-09-27T13:42:39.336Z,95996.72
2022-09-27T13:45:17.511Z,95995.97
2022-09-27T13:47:46.933Z,95994.09
2022-09-27T13:50:29.212Z,96005.84
2022-09-27T13:53:08.276Z,96009.31
2022-09-27T13:55:40.359Z,96000.03
2022-09-27T13:58:27.842Z,95998.66
2022-09-27T14:00:58.579Z,96003.19
2022-09-27T14:03:45.233Z,96000.53
2022-09-27T14:06:22.493Z,96003.50
2022-09-27T14:08:51.666Z,95994.97
2022-09-27T14:11:24.968Z,96003.75
2022-09-27T14:13:52.270Z,96018.34
2022-09-27T14:16:22.058Z,96010.72
2022-09-27T14:18:58.461Z,96004.31
2022-09-27T14:21:38.268Z,96011.63
2022-09-27T14:24:30.609Z,96019.41
2022-09-27T14:27:21.093Z,96022.03
2022-09-27T14:29:57.973Z,96046.31
2022-09-27T14:32:28.967Z,96044.25
2022-09-27T14:35:27.307Z,96049.03
2022-09-27T14:37:54.386Z,96064.03
2022-09-27T14:40:22.234Z,96058.34
2022-09-27T14:42:53.281Z,96061.66
2022-09-27T14:45:19.698Z,96066.66
2022-09-27T14:47:47.350Z,96071.13
2022-09-27T14:50:18.849Z,96080.03
2022-09-27T14:52:47.405Z,96079.63
2022-09-27T14:55:13.977Z,96081.78
2022-09-27T14:57:46.095Z,96084.75
2022-09-27T15:00:20.911Z,96092.94
2022-09-27T15:02:48.668Z,96098.66
2022-09-27T15:05:16.607Z,96099.78
2022-09-27T15:07:44.022Z,96103.31
2022-09-27T15:10:17.033Z,96104.34
2022-09-27T15:12:46.565Z,96099.94
2022-09-27T15:15:13.963Z,96115.38
2022-09-27T15:17:44.619Z,96112.75
2022-09-27T15:20:31.058Z,96109.78
2022-09-27T15:23:04.908Z,96123.75
2022-09-27T15:25:36.702Z,96123.75
2022-09-27T15:28:11.938Z,96125.94
2022-09-27T15:30:39.854Z,96114.91
2022-09-27T15:33:07.611Z,96119.22
2022-09-27T15:35:35.829Z,96111.75
2022-09-27T15:38:11.563Z,96120.50
2022-09-27T15:40:42.904Z,96122.00
2022-09-27T15:43:19.991Z,96125.16
2022-09-27T15:45:50.506Z,96120.72
2022-09-27T15:48:18.537Z,96124.22
2022-09-27T15:50:45.042Z,96117.28
2022-09-27T15:53:11.521Z,96121.50
2022-09-27T15:55:42.213Z,96119.88
2022-09-27T15:58:14.149Z,96116.56
2022-09-27T16:00:50.494Z,96119.91
2022-09-27T16:03:16.973Z,96127.13
2022-09-27T16:05:43.885Z,96138.88
2022-09-27T16:08:10.934Z,96136.81
2022-09-27T16:10:43.914Z,96149.91
2022-09-27T16:13:10.462Z,96154.78
2022-09-27T16:15:37.323Z,96139.75
2022-09-27T16:18:03.818Z,96128.91
2022-09-27T16:20:32.039Z,96126.06
2022-09-27T16:22:58.600Z,96122.69
2022-09-27T16:25:25.378Z,96128.09
2022-09-27T16:27:52.508Z,96139.75
2022-09-27T16:30:20.610Z,96136.88
2022-09-27T16:32:48.043Z,96138.75
2022-09-27T16:35:15.185Z,96141.25
2022-09-27T16:37:41.646Z,96142.72
2022-09-27T16:40:08.884Z,96152.50
2022-09-27T16:42:35.912Z,96156.03
2022-09-27T16:45:07.396Z,96162.91
2022-09-27T16:47:36.373Z,96161.00
2022-09-27T16:50:22.018Z,96155.19
2022-09-27T16:52:50.043Z,96166.97
2022-09-27T16:55:21.137Z,96175.00
2022-09-27T16:57:48.102Z,96183.72
2022-09-27T17:00:15.112Z,96189.09
2022-09-27T17:02:43.558Z,96188.00
2022-09-27T17:05:11.211Z,96189.69
2022-09-27T17:07:37.686Z,96195.78
2022-09-27T17:10:04.909Z,96196.00
2022-09-27T17:12:31.795Z,96187.59
2022-09-27T17:14:58.267Z,96197.59
2022-09-27T17:17:25.757Z,96196.59
2022-09-27T17:19:52.199Z,96197.00
2022-09-27T17:22:18.642Z,96200.56
2022-09-27T17:24:45.074Z,96206.38
2022-09-27T17:27:11.594Z,96200.78
2022-09-27T17:29:38.847Z,96207.63
2022-09-27T17:32:08.583Z,96217.63
2022-09-27T17:34:43.518Z,96201.63
2022-09-27T17:37:10.914Z,96201.84
2022-09-27T17:39:38.048Z,96209.28
2022-09-27T17:42:04.638Z,96208.47
2022-09-27T17:44:31.431Z,96220.13
2022-09-27T17:47:18.138Z,96228.03
2022-09-27T17:50:22.820Z,96223.47
2022-09-27T17:52:49.480Z,96217.63
2022-09-27T17:55:15.997Z,96229.47
2022-09-27T17:57:42.496Z,96236.34
2022-09-27T18:00:09.283Z,96223.63
2022-09-27T18:02:42.003Z,96217.56
2022-09-27T18:05:09.812Z,96228.00
2022-09-27T18:07:37.346Z,96222.59
2022-09-27T18:10:04.659Z,96227.56
2022-09-27T18:12:34.902Z,96219.63
2022-09-27T18:15:02.222Z,96211.75
2022-09-27T18:17:28.752Z,96205.53
2022-09-27T18:19:56.976Z,96188.94
2022-09-27T18:22:29.395Z,96203.03
2022-09-27T18:24:55.833Z,96220.91
2022-09-27T18:27:22.358Z,96231.25
2022-09-27T18:29:48.826Z,96228.59
2022-09-27T18:32:15.265Z,96238.25
2022-09-27T18:34:41.731Z,96238.72
2022-09-27T18:37:08.212Z,96246.16
2022-09-27T18:39:34.657Z,96251.13
2022-09-27T18:42:01.150Z,96249.28
2022-09-27T18:44:28.613Z,96251.09
2022-09-27T18:46:55.880Z,96253.16
2022-09-27T18:49:26.369Z,96259.69
2022-09-27T18:51:54.289Z,96256.25
2022-09-27T18:54:21.478Z,96268.41
2022-09-27T18:56:48.907Z,96264.25
2022-09-27T18:59:15.710Z,96271.88
2022-09-27T19:01:45.092Z,96266.97
2022-09-27T19:04:13.694Z,96271.41
2022-09-27T19:06:40.570Z,96277.31
2022-09-27T19:09:07.277Z,96272.84
2022-09-27T19:11:36.170Z,96275.16
2022-09-27T19:14:02.647Z,96281.06
2022-09-27T19:16:29.489Z,96287.25
2022-09-27T19:18:56.048Z,96292.41
2022-09-27T19:21:24.367Z,96291.41
2022-09-27T19:23:51.486Z,96297.72
2022-09-27T19:26:19.158Z,96290.50
2022-09-27T19:28:46.453Z,96294.31
2022-09-27T19:31:14.976Z,96285.00
2022-09-27T19:33:41.449Z,96281.16
2022-09-27T19:36:09.326Z,96283.94
2022-09-27T19:38:36.585Z,96278.03
2022-09-27T19:41:04.169Z,96271.69
2022-09-27T19:43:33.350Z,96277.88
2022-09-27T19:46:15.125Z,96276.94
2022-09-27T19:48:42.461Z,96278.97
2022-09-27T19:51:12.558Z,96280.63
2022-09-27T19:53:39.565Z,96280.63
2022-09-27T19:56:07.505Z,96283.34
2022-09-27T19:58:34.802Z,96283.00
2022-09-27T20:01:06.311Z,96285.88
2022-09-27T20:03:33.308Z,96280.94
2022-09-27T20:06:00.058Z,96277.91
2022-09-27T20:08:27.185Z,96282.00
2022-09-27T20:11:06.347Z,96279.59
2022-09-27T20:13:33.993Z,96279.25
2022-09-27T20:16:03.205Z,96280.19
2022-09-27T20:18:29.768Z,96280.19
2022-09-27T20:20:59.471Z,96289.09
2022-09-27T20:23:25.999Z,96284.94
2022-09-27T20:25:52.488Z,96286.38
2022-09-27T20:28:18.911Z,96286.91
2022-09-27T20:30:54.940Z,96290.25
2022-09-27T20:33:40.161Z,96290.59
2022-09-27T20:36:16.716Z,96288.75
2022-09-27T20:39:09.176Z,96300.56
2022-09-27T20:41:36.897Z,96288.59
2022-09-27T20:44:05.543Z,96284.84
2022-09-27T20:46:32.743Z,96293.03
2022-09-27T20:49:00.358Z,96295.53
2022-09-27T20:51:27.445Z,96295.00
2022-09-27T20:53:54.146Z,96290.97
2022-09-27T20:56:22.143Z,96295.59
2022-09-27T20:58:49.614Z,96290.69
2022-09-27T21:01:16.623Z,96281.69
2022-09-27T21:03:43.367Z,96276.06
2022-09-27T21:06:09.846Z,96281.22
2022-09-27T21:08:36.434Z,96281.25
2022-09-27T21:11:04.001Z,96282.81
2022-09-27T21:13:30.410Z,96278.50
2022-09-27T21:16:01.137Z,96281.13
2022-09-27T21:18:27.663Z,96287.19
2022-09-27T21:21:00.911Z,96285.69
2022-09-27T21:23:29.773Z,96290.25
2022-09-27T21:26:02.505Z,96289.78
2022-09-27T21:28:33.054Z,96291.06
2022-09-27T21:31:01.507Z,96289.75
2022-09-27T21:33:27.924Z,96294.06
2022-09-27T21:35:54.347Z,96292.28
2022-09-27T21:38:22.499Z,96300.78
2022-09-27T21:40:56.196Z,96307.63
2022-09-27T21:43:26.401Z,96308.75
2022-09-27T21:45:52.895Z,96305.53
2022-09-27T21:48:19.322Z,96307.34
2022-09-27T21:50:45.822Z,96307.72
2022-09-27T21:53:12.225Z,96302.38
2022-09-27T21:55:38.623Z,96302.97
2022-09-27T21:58:05.070Z,96300.88
2022-09-27T22:00:31.506Z,96289.66
2022-09-27T22:02:58.326Z,96293.34
2022-09-27T22:05:24.758Z,96298.47
2022-09-27T22:07:51.225Z,96297.97
2022-09-27T22:10:17.691Z,96305.28
2022-09-27T22:12:44.102Z,96315.41
2022-09-27T22:15:10.564Z,96318.09
2022-09-27T22:17:36.989Z,96317.41
2022-09-27T22:20:03.514Z,96331.09
2022-09-27T22:22:30.024Z,96321.69
2022-09-27T22:24:56.438Z,96325.38
2022-09-27T22:27:22.926Z,96324.19
2022-09-27T22:29:49.349Z,96321.81
2022-09-27T22:32:15.860Z,96323.53
2022-09-27T22:34:42.281Z,96323.38
2022-09-27T22:37:08.696Z,96314.63
2022-09-27T22:39:35.206Z,96304.22
2022-09-27T22:42:01.618Z,96303.47
2022-09-27T22:44:28.086Z,96295.53
2022-09-27T22:46:54.569Z,96298.50
2022-09-27T22:49:21.298Z,96301.75
2022-09-27T22:51:47.762Z,96301.28
2022-09-27T22:54:14.362Z,96305.91
2022-09-27T22:56:40.825Z,96302.22
2022-09-27T22:59:07.347Z,96305.81
2022-09-27T23:01:35.040Z,96303.28
2022-09-27T23:04:01.754Z,96299.50
2022-09-27T23:06:28.331Z,96301.75
2022-09-27T23:08:56.249Z,96307.94
2022-09-27T23:11:23.019Z,96318.13
2022-09-27T23:13:50.163Z,96320.56
2022-09-27T23:16:18.496Z,96324.31
2022-09-27T23:18:46.358Z,96321.84
2022-09-27T23:21:14.166Z,96324.19
2022-09-27T23:23:41.898Z,96329.28
2022-09-27T23:26:10.263Z,96323.06
2022-09-27T23:28:36.919Z,96325.25
2022-09-27T23:31:08.303Z,96325.25
2022-09-27T23:33:35.937Z,96329.69
2022-09-27T23:36:02.946Z,96330.09
2022-09-27T23:38:30.771Z,96330.34
2022-09-27T23:40:57.551Z,96336.13
2022-09-27T23:43:24.107Z,96337.31
2022-09-27T23:45:50.876Z,96329.91
2022-09-27T23:48:18.026Z,96328.63
2022-09-27T23:50:44.544Z,96330.63
2022-09-27T23:53:10.953Z,96339.38
2022-09-27T23:55:37.369Z,96329.28
2022-09-27T23:58:03.794Z,96324.19
